createdAt,value
2023-09-28T00:01:49.645Z,5.17
2023-09-28T00:04:51.420Z,5.20
2023-09-28T00:07:54.168Z,4.73
2023-09-28T00:10:58.191Z,4.97
2023-09-28T00:13:59.913Z,5.63
2023-09-28T00:17:04.720Z,5.07
2023-09-28T00:20:10.943Z,5.30
2023-09-28T00:23:14.001Z,5.30
2023-09-28T00:26:18.009Z,5.27
2023-09-28T00:29:20.710Z,5.23
2023-09-28T00:32:22.825Z,5.60
2023-09-28T00:35:26.628Z,5.20
2023-09-28T00:38:28.413Z,5.30
2023-09-28T00:41:32.401Z,5.20
2023-09-28T00:44:35.034Z,5.70
2023-09-28T00:47:39.718Z,5.13
2023-09-28T00:50:41.593Z,5.50
2023-09-28T00:53:44.435Z,4.93
2023-09-28T00:56:49.743Z,5.70
2023-09-28T00:59:51.670Z,5.60
2023-09-28T01:02:56.832Z,6.20
2023-09-28T01:05:59.541Z,5.53
2023-09-28T01:09:01.188Z,5.83
2023-09-28T01:12:08.598Z,6.57
2023-09-28T01:15:13.001Z,6.00
2023-09-28T01:18:17.465Z,6.13
2023-09-28T01:21:20.190Z,6.57
2023-09-28T01:24:23.257Z,6.00
2023-09-28T01:27:25.901Z,6.07
2023-09-28T01:30:29.081Z,5.97
2023-09-28T01:33:31.277Z,6.80
2023-09-28T01:36:34.022Z,6.47
2023-09-28T01:39:37.055Z,6.90
2023-09-28T01:42:39.684Z,6.67
2023-09-28T01:45:42.364Z,6.63
2023-09-28T01:48:44.059Z,6.80
2023-09-28T01:51:46.722Z,6.60
2023-09-28T01:54:50.744Z,6.50
2023-09-28T01:57:52.448Z,7.33
2023-09-28T02:00:55.108Z,7.10
2023-09-28T02:03:57.773Z,7.13
2023-09-28T02:06:59.784Z,7.63
2023-09-28T02:10:03.786Z,8.67
2023-09-28T02:13:06.822Z,8.00
2023-09-28T02:16:12.553Z,8.00
2023-09-28T02:19:15.377Z,7.40
2023-09-28T02:22:18.025Z,8.47
2023-09-28T02:25:23.414Z,8.23
2023-09-28T02:28:25.100Z,8.23
2023-09-28T02:31:28.945Z,8.27
2023-09-28T02:34:35.018Z,8.80
2023-09-28T02:37:37.955Z,8.60
2023-09-28T02:40:41.990Z,7.97
2023-09-28T02:43:44.654Z,8.00
2023-09-28T02:46:46.417Z,8.60
2023-09-28T02:49:49.608Z,8.33
2023-09-28T02:52:53.844Z,8.33
2023-09-28T02:55:58.436Z,8.07
2023-09-28T02:59:00.936Z,8.37
2023-09-28T03:02:03.998Z,8.57
2023-09-28T03:05:08.178Z,8.77
2023-09-28T03:08:11.365Z,8.50
2023-09-28T03:11:16.687Z,8.23
2023-09-28T03:14:20.349Z,7.90
2023-09-28T03:17:22.075Z,8.60
2023-09-28T03:20:26.303Z,8.30
2023-09-28T03:23:28.020Z,8.37
2023-09-28T03:26:32.470Z,8.53
2023-09-28T03:29:35.125Z,8.00
2023-09-28T03:32:37.427Z,8.13
2023-09-28T03:35:40.149Z,8.47
2023-09-28T03:38:42.777Z,8.00
2023-09-28T03:41:46.761Z,7.80
2023-09-28T03:44:49.400Z,8.60
2023-09-28T03:47:53.741Z,8.80
2023-09-28T03:50:56.441Z,8.63
2023-09-28T03:53:59.353Z,9.37
2023-09-28T03:57:03.593Z,8.83
2023-09-28T04:00:09.985Z,8.67
2023-09-28T04:03:12.937Z,8.77
2023-09-28T04:06:15.564Z,8.37
2023-09-28T04:09:18.204Z,8.63
2023-09-28T04:12:22.185Z,8.60
2023-09-28T04:15:24.910Z,8.73
2023-09-28T04:18:28.129Z,8.57
2023-09-28T04:21:30.862Z,8.70
2023-09-28T04:24:33.472Z,9.10
2023-09-28T04:27:37.645Z,9.03
2023-09-28T04:30:40.334Z,8.40
2023-09-28T04:33:42.953Z,8.30
2023-09-28T04:36:46.113Z,8.77
2023-09-28T04:39:48.767Z,9.00
2023-09-28T04:42:52.742Z,8.47
2023-09-28T04:45:55.396Z,8.13
2023-09-28T04:48:58.057Z,8.20
2023-09-28T04:52:00.833Z,8.30
2023-09-28T04:55:05.140Z,8.90
2023-09-28T04:58:11.436Z,8.43
2023-09-28T05:01:14.214Z,7.77
2023-09-28T05:04:17.258Z,8.17
2023-09-28T05:07:19.924Z,8.27
2023-09-28T05:10:22.546Z,8.17
2023-09-28T05:13:30.483Z,8.23
2023-09-28T05:16:33.230Z,8.30
2023-09-28T05:19:35.928Z,8.40
2023-09-28T05:22:38.759Z,8.67
2023-09-28T05:25:41.424Z,8.57
2023-09-28T05:28:45.482Z,8.30
2023-09-28T05:31:48.624Z,8.10
2023-09-28T05:34:51.475Z,8.67
2023-09-28T05:37:54.178Z,8.57
2023-09-28T05:40:57.661Z,8.03
2023-09-28T05:44:01.903Z,7.93
2023-09-28T05:47:04.599Z,8.53
2023-09-28T05:50:09.401Z,8.57
2023-09-28T05:53:12.133Z,8.47
2023-09-28T05:56:14.857Z,8.63
2023-09-28T05:59:18.900Z,8.10
2023-09-28T06:02:24.069Z,8.10
2023-09-28T06:05:27.321Z,8.37
2023-09-28T06:08:30.020Z,8.20
2023-09-28T06:11:32.733Z,8.00
2023-09-28T06:14:37.143Z,7.97
2023-09-28T06:17:39.927Z,8.47
2023-09-28T06:20:42.977Z,8.90
2023-09-28T06:23:45.706Z,7.43
2023-09-28T06:26:50.059Z,8.07
2023-09-28T06:29:55.178Z,7.40
2023-09-28T06:32:58.151Z,7.93
2023-09-28T06:36:00.778Z,7.47
2023-09-28T06:39:04.711Z,7.10
2023-09-28T06:42:20.782Z,6.90
2023-09-28T06:45:30.437Z,7.60
2023-09-28T06:48:34.499Z,6.73
2023-09-28T06:51:38.264Z,6.70
2023-09-28T06:54:40.926Z,6.57
2023-09-28T06:57:43.589Z,6.50
2023-09-28T07:00:47.867Z,6.03
2023-09-28T07:03:54.472Z,6.50
2023-09-28T07:06:57.346Z,6.13
2023-09-28T07:10:00.033Z,6.00
2023-09-28T07:13:04.076Z,6.43
2023-09-28T07:16:09.069Z,6.03
2023-09-28T07:19:11.810Z,6.37
2023-09-28T07:22:16.607Z,5.70
2023-09-28T07:25:20.310Z,6.60
2023-09-28T07:28:23.145Z,6.30
2023-09-28T07:31:28.427Z,5.93
2023-09-28T07:34:31.328Z,6.43
2023-09-28T07:37:34.380Z,5.77
2023-09-28T07:43:47.369Z,5.83
2023-09-28T07:46:51.561Z,5.50
2023-09-28T07:49:54.449Z,5.27
2023-09-28T07:52:57.186Z,5.90
2023-09-28T07:55:59.915Z,6.17
2023-09-28T07:59:02.608Z,5.53
2023-09-28T08:02:06.685Z,5.40
2023-09-28T08:05:09.874Z,5.37
2023-09-28T08:08:16.862Z,5.67
2023-09-28T08:11:20.971Z,5.30
2023-09-28T08:14:23.635Z,5.90
2023-09-28T08:17:27.694Z,5.63
2023-09-28T08:20:31.918Z,5.60
2023-09-28T08:23:34.788Z,5.57
2023-09-28T08:26:37.516Z,5.03
2023-09-28T08:29:40.143Z,5.30
2023-09-28T08:32:44.317Z,5.43
2023-09-28T08:35:49.087Z,4.57
2023-09-28T08:38:52.147Z,4.90
2023-09-28T08:41:56.764Z,5.37
2023-09-28T08:45:03.422Z,5.20
2023-09-28T08:48:12.708Z,5.05
2023-09-28T08:51:16.755Z,4.93
2023-09-28T08:54:20.632Z,5.15
2023-09-28T08:57:23.418Z,4.63
2023-09-28T09:00:27.292Z,5.10
2023-09-28T09:03:34.101Z,5.00
2023-09-28T09:06:38.103Z,4.18
2023-09-28T09:09:43.228Z,4.97
2023-09-28T09:12:45.900Z,4.20
2023-09-28T09:15:50.339Z,4.25
2023-09-28T09:18:55.354Z,4.57
2023-09-28T09:21:58.625Z,4.35
2023-09-28T09:25:01.541Z,4.57
2023-09-28T09:28:05.627Z,4.22
2023-09-28T09:31:08.399Z,4.80
2023-09-28T09:34:18.847Z,4.13
2023-09-28T09:37:21.586Z,4.35
2023-09-28T09:40:24.372Z,4.53
2023-09-28T09:43:27.034Z,4.30
2023-09-28T09:46:29.724Z,4.30
2023-09-28T09:49:35.155Z,4.05
2023-09-28T09:52:38.517Z,4.03
2023-09-28T09:55:47.610Z,3.72
2023-09-28T09:58:57.997Z,4.13
2023-09-28T10:02:03.139Z,4.03
2023-09-28T10:05:10.009Z,3.60
2023-09-28T10:08:13.439Z,3.75
2023-09-28T10:11:17.554Z,3.55
2023-09-28T10:14:22.644Z,3.15
2023-09-28T10:17:27.285Z,3.35
2023-09-28T10:20:31.966Z,2.97
2023-09-28T10:23:34.751Z,2.80
2023-09-28T10:26:39.809Z,2.83
2023-09-28T10:29:43.105Z,3.00
2023-09-28T10:32:46.776Z,2.97
2023-09-28T10:35:50.848Z,3.20
2023-09-28T10:39:08.410Z,2.90
2023-09-28T10:42:14.357Z,2.72
2023-09-28T10:45:28.292Z,3.35
2023-09-28T10:48:33.979Z,2.83
2023-09-28T10:51:38.160Z,3.28
2023-09-28T10:54:41.010Z,3.42
2023-09-28T10:57:44.206Z,3.00
2023-09-28T11:00:46.848Z,3.38
2023-09-28T11:03:51.509Z,3.65
2023-09-28T11:06:56.962Z,2.75
2023-09-28T11:10:00.044Z,3.10
2023-09-28T11:13:03.087Z,2.90
2023-09-28T11:16:05.956Z,2.80
2023-09-28T11:19:10.808Z,2.90
2023-09-28T11:22:16.985Z,2.58
2023-09-28T11:25:34.861Z,3.53
2023-09-28T11:28:42.699Z,2.70
2023-09-28T11:31:51.631Z,2.80
2023-09-28T11:34:55.726Z,3.30
2023-09-28T11:38:04.135Z,3.00
2023-09-28T11:41:07.026Z,2.95
2023-09-28T11:44:09.737Z,3.20
2023-09-28T11:47:12.436Z,3.25
2023-09-28T11:50:15.384Z,2.95
2023-09-28T11:53:19.579Z,2.60
2023-09-28T11:56:22.777Z,3.28
2023-09-28T11:59:25.551Z,3.67
2023-09-28T12:02:29.741Z,3.10
2023-09-28T12:05:34.618Z,2.70
2023-09-28T12:08:39.080Z,3.00
2023-09-28T12:11:42.979Z,3.15
2023-09-28T12:14:45.898Z,2.95
2023-09-28T12:17:48.636Z,2.75
2023-09-28T12:20:51.361Z,2.60
2023-09-28T12:23:57.144Z,2.55
2023-09-28T12:27:02.140Z,2.90
2023-09-28T12:30:06.083Z,3.30
2023-09-28T12:33:09.758Z,2.78
2023-09-28T12:36:12.513Z,2.80
2023-09-28T12:39:22.683Z,2.60
2023-09-28T12:42:26.009Z,2.83
2023-09-28T12:45:28.961Z,2.90
2023-09-28T12:48:31.637Z,2.67
2023-09-28T12:51:34.425Z,2.72
2023-09-28T12:54:38.706Z,3.28
2023-09-28T12:57:41.453Z,2.58
2023-09-28T13:00:45.949Z,2.75
2023-09-28T13:03:50.914Z,2.40
2023-09-28T13:06:54.054Z,2.80
2023-09-28T13:09:58.030Z,2.58
2023-09-28T13:13:01.579Z,3.03
2023-09-28T13:16:06.922Z,2.88
2023-09-28T13:19:12.904Z,2.58
2023-09-28T13:22:15.651Z,2.63
2023-09-28T13:25:19.688Z,2.78
2023-09-28T13:28:22.749Z,2.85
2023-09-28T13:31:26.172Z,3.17
2023-09-28T13:34:28.976Z,3.00
2023-09-28T13:37:31.883Z,3.05
2023-09-28T13:40:36.445Z,2.85
2023-09-28T13:43:39.788Z,3.15
2023-09-28T13:46:42.504Z,2.78
2023-09-28T13:49:45.241Z,3.40
2023-09-28T13:52:48.078Z,3.10
2023-09-28T13:55:53.492Z,2.90
2023-09-28T13:58:56.144Z,2.72
2023-09-28T14:01:59.748Z,3.03
2023-09-28T14:05:02.566Z,3.22
2023-09-28T14:08:05.881Z,2.85
2023-09-28T14:11:12.798Z,3.03
2023-09-28T14:14:16.241Z,3.40
2023-09-28T14:17:28.408Z,3.20
2023-09-28T14:20:40.749Z,3.00
2023-09-28T14:23:43.727Z,3.28
2023-09-28T14:26:47.783Z,3.08
2023-09-28T14:29:50.507Z,2.83
2023-09-28T14:32:53.608Z,2.85
2023-09-28T14:35:56.982Z,2.78
2023-09-28T14:39:00.257Z,3.13
2023-09-28T14:42:05.900Z,2.88
2023-09-28T14:45:10.297Z,3.35
2023-09-28T14:48:13.471Z,3.40
2023-09-28T14:51:17.643Z,2.72
2023-09-28T14:54:20.353Z,3.00
2023-09-28T14:57:25.313Z,3.33
2023-09-28T15:00:27.964Z,3.60
2023-09-28T15:03:32.048Z,3.20
2023-09-28T15:06:35.055Z,3.05
2023-09-28T15:09:38.018Z,3.42
2023-09-28T15:12:42.055Z,3.17
2023-09-28T15:15:44.789Z,3.38
2023-09-28T15:18:47.771Z,3.63
2023-09-28T15:21:50.851Z,3.17
2023-09-28T15:24:53.910Z,3.63
2023-09-28T15:27:57.939Z,3.22
2023-09-28T15:31:01.674Z,3.28
2023-09-28T15:34:04.521Z,3.60
2023-09-28T15:37:07.178Z,3.33
2023-09-28T15:40:10.577Z,3.30
2023-09-28T15:43:14.707Z,3.95
2023-09-28T15:46:21.747Z,3.70
2023-09-28T15:49:24.412Z,3.40
2023-09-28T15:52:27.044Z,3.47
2023-09-28T15:55:29.688Z,4.03
2023-09-28T15:58:34.730Z,3.50
2023-09-28T16:01:38.649Z,3.30
2023-09-28T16:04:41.320Z,3.80
2023-09-28T16:07:43.973Z,3.83
2023-09-28T16:10:47.499Z,3.53
2023-09-28T16:13:51.519Z,3.67
2023-09-28T16:16:54.184Z,3.85
2023-09-28T16:19:56.828Z,3.70
2023-09-28T16:22:59.452Z,3.35
2023-09-28T16:26:02.086Z,3.85
2023-09-28T16:29:06.312Z,4.00
2023-09-28T16:32:09.217Z,3.90
2023-09-28T16:35:12.183Z,4.32
2023-09-28T16:38:14.954Z,3.50
2023-09-28T16:41:18.334Z,4.00
2023-09-28T16:44:22.725Z,4.15
2023-09-28T16:47:25.453Z,3.30
2023-09-28T16:50:29.289Z,3.58
2023-09-28T16:53:32.107Z,3.33
2023-09-28T16:56:35.069Z,3.70
2023-09-28T16:59:39.210Z,3.50
2023-09-28T17:02:42.167Z,3.47
2023-09-28T17:05:45.068Z,3.80
2023-09-28T17:08:49.407Z,3.60
2023-09-28T17:11:52.250Z,3.85
2023-09-28T17:14:56.359Z,3.65
2023-09-28T17:18:10.124Z,4.00
2023-09-28T17:21:21.278Z,3.92
2023-09-28T17:24:24.029Z,4.18
2023-09-28T17:27:26.917Z,6.00
2023-09-28T17:30:31.134Z,9.27
2023-09-28T17:33:33.904Z,6.68
2023-09-28T17:36:36.705Z,4.60
2023-09-28T17:39:39.439Z,4.63
2023-09-28T17:42:42.198Z,4.10
2023-09-28T17:45:48.533Z,4.15
2023-09-28T17:48:51.560Z,9.32
2023-09-28T17:51:54.241Z,17.77
2023-09-28T17:54:58.576Z,8.27
2023-09-28T17:58:01.317Z,30.77
2023-09-28T18:01:05.522Z,17.40
2023-09-28T18:04:08.375Z,15.73
2023-09-28T18:07:11.293Z,7.63
2023-09-28T18:10:15.539Z,6.83
2023-09-28T18:13:18.284Z,5.50
2023-09-28T18:16:22.441Z,5.33
2023-09-28T18:19:25.205Z,5.10
2023-09-28T18:22:27.850Z,5.07
2023-09-28T18:25:30.548Z,5.03
2023-09-28T18:28:37.376Z,4.80
2023-09-28T18:31:41.847Z,4.10
2023-09-28T18:34:44.606Z,4.90
2023-09-28T18:37:47.759Z,5.73
2023-09-28T18:40:50.500Z,4.73
2023-09-28T18:43:53.620Z,4.90
2023-09-28T18:46:58.662Z,4.70
2023-09-28T18:50:01.423Z,4.37
2023-09-28T18:53:05.149Z,4.00
2023-09-28T18:56:09.383Z,4.10
2023-09-28T18:59:12.298Z,4.47
2023-09-28T19:02:16.513Z,3.97
2023-09-28T19:05:19.790Z,3.90
2023-09-28T19:08:23.662Z,4.00
2023-09-28T19:11:26.836Z,4.60
2023-09-28T19:14:29.643Z,4.53
2023-09-28T19:17:33.978Z,4.40
2023-09-28T19:20:36.810Z,4.37
2023-09-28T19:23:39.635Z,4.80
2023-09-28T19:26:42.428Z,4.27
2023-09-28T19:29:45.186Z,4.23
2023-09-28T19:32:49.368Z,4.23
2023-09-28T19:35:52.444Z,4.90
2023-09-28T19:38:55.191Z,5.10
2023-09-28T19:41:58.214Z,5.50
2023-09-28T19:45:00.886Z,4.90
2023-09-28T19:48:05.941Z,4.40
2023-09-28T19:51:09.834Z,4.37
2023-09-28T19:54:12.565Z,4.60
2023-09-28T19:57:15.234Z,4.30
2023-09-28T20:00:18.772Z,4.63
2023-09-28T20:03:22.885Z,4.83
2023-09-28T20:06:27.157Z,4.73
2023-09-28T20:09:32.306Z,4.20
2023-09-28T20:12:35.515Z,4.90
2023-09-28T20:15:38.337Z,5.00
2023-09-28T20:18:42.479Z,4.83
2023-09-28T20:21:45.240Z,4.90
2023-09-28T20:24:48.229Z,4.77
2023-09-28T20:27:50.894Z,4.73
2023-09-28T20:30:53.659Z,4.57
2023-09-28T20:33:57.951Z,4.67
2023-09-28T20:37:00.642Z,5.10
2023-09-28T20:40:03.501Z,5.33
2023-09-28T20:43:06.381Z,5.03
2023-09-28T20:46:15.836Z,4.50
2023-09-28T20:49:19.937Z,5.23
2023-09-28T20:52:22.657Z,4.70
2023-09-28T20:55:25.761Z,5.20
2023-09-28T20:58:28.556Z,4.97
2023-09-28T21:01:31.338Z,5.23
2023-09-28T21:04:35.867Z,5.13
2023-09-28T21:07:44.881Z,5.23
2023-09-28T21:10:48.466Z,5.30
2023-09-28T21:13:51.142Z,5.10
2023-09-28T21:16:53.882Z,5.30
2023-09-28T21:19:57.931Z,4.77
2023-09-28T21:23:00.635Z,5.27
2023-09-28T21:26:03.352Z,5.10
2023-09-28T21:29:06.212Z,4.77
2023-09-28T21:32:09.273Z,5.17
2023-09-28T21:35:13.354Z,5.40
2023-09-28T21:38:15.996Z,5.37
2023-09-28T21:41:18.832Z,5.27
2023-09-28T21:44:21.577Z,4.83
2023-09-28T21:47:24.318Z,5.03
2023-09-28T21:50:28.458Z,4.80
2023-09-28T21:53:31.377Z,4.63
2023-09-28T21:56:34.128Z,4.93
2023-09-28T21:59:36.931Z,4.70
2023-09-28T22:02:40.783Z,4.97
2023-09-28T22:05:45.298Z,4.57
2023-09-28T22:08:48.088Z,4.67
2023-09-28T22:11:53.078Z,4.97
2023-09-28T22:14:55.918Z,4.40
2023-09-28T22:17:58.750Z,4.40
2023-09-28T22:21:03.088Z,4.57
2023-09-28T22:24:07.920Z,4.40
2023-09-28T22:27:10.628Z,4.37
2023-09-28T22:30:13.720Z,4.47
2023-09-28T22:33:16.588Z,4.63
2023-09-28T22:36:20.729Z,4.20
2023-09-28T22:39:23.435Z,4.20
2023-09-28T22:42:26.157Z,4.00
2023-09-28T22:45:28.883Z,4.17
2023-09-28T22:48:31.561Z,4.30
2023-09-28T22:51:35.611Z,4.27
2023-09-28T22:54:39.231Z,4.77
2023-09-28T22:57:42.009Z,4.57
2023-09-28T23:00:44.754Z,4.33
2023-09-28T23:03:47.523Z,4.73
2023-09-28T23:06:51.627Z,4.37
2023-09-28T23:09:54.447Z,4.60
2023-09-28T23:12:57.280Z,4.63
2023-09-28T23:16:00.470Z,4.27
2023-09-28T23:19:03.896Z,4.70
2023-09-28T23:22:08.082Z,5.17
2023-09-28T23:25:14.275Z,4.57
2023-09-28T23:28:17.526Z,4.90
2023-09-28T23:31:20.458Z,4.83
2023-09-28T23:34:24.643Z,4.03
2023-09-28T23:37:28.873Z,4.97
2023-09-28T23:40:31.578Z,4.70
2023-09-28T23:43:35.032Z,4.77
2023-09-28T23:46:40.815Z,4.33
2023-09-28T23:49:43.646Z,4.90
2023-09-28T23:52:48.944Z,4.60
2023-09-28T23:55:51.631Z,4.40
2023-09-28T23:58:55.083Z,4.37
